Disclaimer

Please do not use the information listed here in-flight or in-navigation, as they are not provided to us by the airports but are provided by volunteers, so they might be outdated.

Search


Regions


Airport information page

No radio frequency information is available.

Airport informations:
Latitude: 21° 48' 43.20" S
Longitude: 048° 07' 58.90" W
Elevation: 2334 feet - 711 meters
Operating hours: Remarks
Operating agency: Civil government, landing fees and diplomatic clearance may be required
Timezone: UTC-3(-2DT)
Fuel: 100/130 octane gasoline, leaded, MIL-L-5572F (GREEN)

Unknown fuel type or whether there is any fuel.

Runway information:
17/35 - 5905 x 98 feet< - >1800 x 30 meters

Recent METARs:
SBAQ 210200Z 17008KT 9999 OVC040 21/17 Q1018
SBAQ 210200Z 17008KT 9999 OVC040 21/17 Q1018

Airport on the map: